sensor_id;sensor_type;location;lat;lon;timestamp;temperature;humidity
24730;DHT22;12832;52.392;13.066;2023-03-14T00:02:26;25.20;35.30
24730;DHT22;12832;52.392;13.066;2023-03-14T00:05:04;25.20;35.30
24730;DHT22;12832;52.392;13.066;2023-03-14T00:07:43;25.20;35.30
24730;DHT22;12832;52.392;13.066;2023-03-14T00:10:39;25.20;35.30
24730;DHT22;12832;52.392;13.066;2023-03-14T00:13:10;25.20;35.20
24730;DHT22;12832;52.392;13.066;2023-03-14T00:15:42;25.20;35.20
24730;DHT22;12832;52.392;13.066;2023-03-14T00:18:14;25.20;35.20
24730;DHT22;12832;52.392;13.066;2023-03-14T00:20:56;25.20;35.20
24730;DHT22;12832;52.392;13.066;2023-03-14T00:23:31;25.20;35.30
24730;DHT22;12832;52.392;13.066;2023-03-14T00:26:04;25.20;35.20
24730;DHT22;12832;52.392;13.066;2023-03-14T00:28:58;25.20;35.20
24730;DHT22;12832;52.392;13.066;2023-03-14T00:31:38;25.20;35.20
24730;DHT22;12832;52.392;13.066;2023-03-14T00:34:21;25.20;35.20
24730;DHT22;12832;52.392;13.066;2023-03-14T00:37:02;25.20;35.20
24730;DHT22;12832;52.392;13.066;2023-03-14T00:39:34;25.20;35.20
24730;DHT22;12832;52.392;13.066;2023-03-14T00:42:09;25.20;35.20
24730;DHT22;12832;52.392;13.066;2023-03-14T00:44:58;25.20;35.90
24730;DHT22;12832;52.392;13.066;2023-03-14T00:47:32;25.20;35.20
24730;DHT22;12832;52.392;13.066;2023-03-14T00:50:17;25.20;35.20
24730;DHT22;12832;52.392;13.066;2023-03-14T00:52:50;25.20;35.20
24730;DHT22;12832;52.392;13.066;2023-03-14T00:55:29;25.20;35.20
24730;DHT22;12832;52.392;13.066;2023-03-14T00:58:05;25.20;35.20
24730;DHT22;12832;52.392;13.066;2023-03-14T01:00:43;25.20;35.20
24730;DHT22;12832;52.392;13.066;2023-03-14T01:03:16;25.20;35.20
24730;DHT22;12832;52.392;13.066;2023-03-14T01:05:53;25.20;35.20
24730;DHT22;12832;52.392;13.066;2023-03-14T01:08:27;25.20;35.20
24730;DHT22;12832;52.392;13.066;2023-03-14T01:10:56;25.20;35.20
24730;DHT22;12832;52.392;13.066;2023-03-14T01:13:29;25.20;35.10
24730;DHT22;12832;52.392;13.066;2023-03-14T01:16:06;25.20;35.20
24730;DHT22;12832;52.392;13.066;2023-03-14T01:18:35;25.20;35.20
24730;DHT22;12832;52.392;13.066;2023-03-14T01:21:15;25.20;35.10
24730;DHT22;12832;52.392;13.066;2023-03-14T01:23:46;25.20;35.10
24730;DHT22;12832;52.392;13.066;2023-03-14T01:26:19;25.20;35.20
24730;DHT22;12832;52.392;13.066;2023-03-14T01:28:55;25.20;35.20
24730;DHT22;12832;52.392;13.066;2023-03-14T01:31:36;25.20;35.10
24730;DHT22;12832;52.392;13.066;2023-03-14T01:34:12;25.20;35.10
24730;DHT22;12832;52.392;13.066;2023-03-14T01:36:40;25.20;35.10
24730;DHT22;12832;52.392;13.066;2023-03-14T01:39:11;25.20;35.10
24730;DHT22;12832;52.392;13.066;2023-03-14T01:41:59;25.20;35.10
24730;DHT22;12832;52.392;13.066;2023-03-14T01:47:28;25.20;35.10
24730;DHT22;12832;52.392;13.066;2023-03-14T01:50:10;25.20;35.10
24730;DHT22;12832;52.392;13.066;2023-03-14T01:53:04;25.20;35.10
24730;DHT22;12832;52.392;13.066;2023-03-14T01:55:36;25.20;35.10
24730;DHT22;12832;52.392;13.066;2023-03-14T01:58:08;25.20;35.10
24730;DHT22;12832;52.392;13.066;2023-03-14T02:00:46;25.20;35.10
24730;DHT22;12832;52.392;13.066;2023-03-14T02:03:18;25.20;35.10
24730;DHT22;12832;52.392;13.066;2023-03-14T02:05:53;25.20;35.10
24730;DHT22;12832;52.392;13.066;2023-03-14T02:08:29;25.20;35.10
24730;DHT22;12832;52.392;13.066;2023-03-14T02:11:08;25.20;35.10
24730;DHT22;12832;52.392;13.066;2023-03-14T02:13:43;25.20;35.10
24730;DHT22;12832;52.392;13.066;2023-03-14T02:16:19;25.20;35.10
24730;DHT22;12832;52.392;13.066;2023-03-14T02:18:50;25.20;35.20
24730;DHT22;12832;52.392;13.066;2023-03-14T02:24:24;25.20;35.10
24730;DHT22;12832;52.392;13.066;2023-03-14T02:30:00;25.20;35.10
24730;DHT22;12832;52.392;13.066;2023-03-14T02:33:04;25.20;35.10
24730;DHT22;12832;52.392;13.066;2023-03-14T02:35:42;25.20;35.00
24730;DHT22;12832;52.392;13.066;2023-03-14T02:38:38;25.20;35.00
24730;DHT22;12832;52.392;13.066;2023-03-14T02:41:22;25.20;35.00
24730;DHT22;12832;52.392;13.066;2023-03-14T02:43:58;25.20;35.00
24730;DHT22;12832;52.392;13.066;2023-03-14T02:46:29;25.20;35.00
24730;DHT22;12832;52.392;13.066;2023-03-14T02:49:05;25.20;35.00
24730;DHT22;12832;52.392;13.066;2023-03-14T02:51:41;25.20;35.00
24730;DHT22;12832;52.392;13.066;2023-03-14T02:54:19;25.20;35.00
24730;DHT22;12832;52.392;13.066;2023-03-14T02:56:56;25.20;35.10
24730;DHT22;12832;52.392;13.066;2023-03-14T02:59:22;25.20;35.00
24730;DHT22;12832;52.392;13.066;2023-03-14T03:01:51;25.20;35.00
24730;DHT22;12832;52.392;13.066;2023-03-14T03:04:17;25.20;35.00
24730;DHT22;12832;52.392;13.066;2023-03-14T03:06:53;25.20;35.00
24730;DHT22;12832;52.392;13.066;2023-03-14T03:09:25;25.20;35.00
24730;DHT22;12832;52.392;13.066;2023-03-14T03:11:56;25.20;35.00
24730;DHT22;12832;52.392;13.066;2023-03-14T03:14:29;25.20;35.10
24730;DHT22;12832;52.392;13.066;2023-03-14T03:17:06;25.20;35.00
24730;DHT22;12832;52.392;13.066;2023-03-14T03:19:38;25.20;35.00
24730;DHT22;12832;52.392;13.066;2023-03-14T03:22:09;25.20;35.10
24730;DHT22;12832;52.392;13.066;2023-03-14T03:24:42;25.20;35.00
24730;DHT22;12832;52.392;13.066;2023-03-14T03:27:15;25.20;35.00
24730;DHT22;12832;52.392;13.066;2023-03-14T03:29:43;25.20;35.10
24730;DHT22;12832;52.392;13.066;2023-03-14T03:32:16;25.20;35.10
24730;DHT22;12832;52.392;13.066;2023-03-14T03:34:50;25.20;35.10
24730;DHT22;12832;52.392;13.066;2023-03-14T03:37:21;25.20;35.00
24730;DHT22;12832;52.392;13.066;2023-03-14T03:39:52;25.20;35.10
24730;DHT22;12832;52.392;13.066;2023-03-14T03:42:22;25.20;35.10
24730;DHT22;12832;52.392;13.066;2023-03-14T03:44:55;25.20;35.00
24730;DHT22;12832;52.392;13.066;2023-03-14T03:47:24;25.20;35.10
24730;DHT22;12832;52.392;13.066;2023-03-14T03:49:53;25.20;35.10
24730;DHT22;12832;52.392;13.066;2023-03-14T03:52:27;25.20;35.00
24730;DHT22;12832;52.392;13.066;2023-03-14T03:54:55;25.20;35.00
24730;DHT22;12832;52.392;13.066;2023-03-14T03:57:25;25.20;35.00
24730;DHT22;12832;52.392;13.066;2023-03-14T03:59:55;25.20;35.00
24730;DHT22;12832;52.392;13.066;2023-03-14T04:02:37;25.20;35.00
24730;DHT22;12832;52.392;13.066;2023-03-14T04:05:11;25.30;35.10
24730;DHT22;12832;52.392;13.066;2023-03-14T04:07:40;25.20;35.10
24730;DHT22;12832;52.392;13.066;2023-03-14T04:10:12;25.20;35.00
24730;DHT22;12832;52.392;13.066;2023-03-14T04:12:40;25.20;35.00
24730;DHT22;12832;52.392;13.066;2023-03-14T04:15:12;25.20;35.00
24730;DHT22;12832;52.392;13.066;2023-03-14T04:17:43;25.20;35.00
24730;DHT22;12832;52.392;13.066;2023-03-14T04:20:13;25.20;35.00
24730;DHT22;12832;52.392;13.066;2023-03-14T04:22:48;25.20;35.00
24730;DHT22;12832;52.392;13.066;2023-03-14T04:25:19;25.30;35.10
24730;DHT22;12832;52.392;13.066;2023-03-14T04:27:51;25.30;35.00
24730;DHT22;12832;52.392;13.066;2023-03-14T04:30:20;25.20;35.00
24730;DHT22;12832;52.392;13.066;2023-03-14T04:32:50;25.20;35.00
24730;DHT22;12832;52.392;13.066;2023-03-14T04:35:19;25.20;35.10
24730;DHT22;12832;52.392;13.066;2023-03-14T04:37:49;25.20;35.70
24730;DHT22;12832;52.392;13.066;2023-03-14T04:40:24;25.20;35.10
24730;DHT22;12832;52.392;13.066;2023-03-14T04:42:56;25.20;35.80
24730;DHT22;12832;52.392;13.066;2023-03-14T04:45:27;25.20;35.10
24730;DHT22;12832;52.392;13.066;2023-03-14T04:47:56;25.20;35.10
24730;DHT22;12832;52.392;13.066;2023-03-14T04:50:27;25.20;35.10
24730;DHT22;12832;52.392;13.066;2023-03-14T04:52:58;25.20;35.10
24730;DHT22;12832;52.392;13.066;2023-03-14T04:55:30;25.20;35.10
24730;DHT22;12832;52.392;13.066;2023-03-14T04:57:59;25.20;35.10
24730;DHT22;12832;52.392;13.066;2023-03-14T05:00:40;25.20;35.10
24730;DHT22;12832;52.392;13.066;2023-03-14T05:03:09;25.30;35.90
24730;DHT22;12832;52.392;13.066;2023-03-14T05:05:35;25.30;35.10
24730;DHT22;12832;52.392;13.066;2023-03-14T05:08:04;25.30;35.10
24730;DHT22;12832;52.392;13.066;2023-03-14T05:10:39;25.20;35.10
24730;DHT22;12832;52.392;13.066;2023-03-14T05:13:15;25.20;35.10
24730;DHT22;12832;52.392;13.066;2023-03-14T05:15:49;25.20;35.10
24730;DHT22;12832;52.392;13.066;2023-03-14T05:18:28;25.20;35.10
24730;DHT22;12832;52.392;13.066;2023-03-14T05:20:59;25.20;35.10
24730;DHT22;12832;52.392;13.066;2023-03-14T05:23:27;25.20;35.10
24730;DHT22;12832;52.392;13.066;2023-03-14T05:25:59;25.20;35.10
24730;DHT22;12832;52.392;13.066;2023-03-14T05:28:27;25.30;35.10
24730;DHT22;12832;52.392;13.066;2023-03-14T05:30:56;25.20;35.00
24730;DHT22;12832;52.392;13.066;2023-03-14T05:33:27;25.30;35.00
24730;DHT22;12832;52.392;13.066;2023-03-14T05:35:58;25.30;35.00
24730;DHT22;12832;52.392;13.066;2023-03-14T05:38:29;25.30;35.10
24730;DHT22;12832;52.392;13.066;2023-03-14T05:40:59;25.30;35.00
24730;DHT22;12832;52.392;13.066;2023-03-14T05:43:31;25.30;35.10
24730;DHT22;12832;52.392;13.066;2023-03-14T05:46:00;25.30;35.00
24730;DHT22;12832;52.392;13.066;2023-03-14T05:48:29;25.30;35.00
24730;DHT22;12832;52.392;13.066;2023-03-14T05:51:01;25.30;35.00
24730;DHT22;12832;52.392;13.066;2023-03-14T05:53:32;25.30;35.00
24730;DHT22;12832;52.392;13.066;2023-03-14T05:56:03;25.30;35.00
24730;DHT22;12832;52.392;13.066;2023-03-14T05:58:32;25.30;35.00
24730;DHT22;12832;52.392;13.066;2023-03-14T06:01:06;25.30;35.00
24730;DHT22;12832;52.392;13.066;2023-03-14T06:03:38;25.30;34.90
24730;DHT22;12832;52.392;13.066;2023-03-14T06:06:09;25.20;34.80
24730;DHT22;12832;52.392;13.066;2023-03-14T06:08:45;25.20;35.10
24730;DHT22;12832;52.392;13.066;2023-03-14T06:11:15;25.10;35.00
24730;DHT22;12832;52.392;13.066;2023-03-14T06:13:51;25.10;35.20
24730;DHT22;12832;52.392;13.066;2023-03-14T06:16:17;25.10;35.30
24730;DHT22;12832;52.392;13.066;2023-03-14T06:18:46;25.10;35.40
24730;DHT22;12832;52.392;13.066;2023-03-14T06:21:19;25.00;35.50
24730;DHT22;12832;52.392;13.066;2023-03-14T06:23:53;25.00;35.40
24730;DHT22;12832;52.392;13.066;2023-03-14T06:26:22;25.00;35.50
24730;DHT22;12832;52.392;13.066;2023-03-14T06:28:52;24.90;35.70
24730;DHT22;12832;52.392;13.066;2023-03-14T06:31:20;24.90;35.70
24730;DHT22;12832;52.392;13.066;2023-03-14T06:33:48;24.90;35.80
24730;DHT22;12832;52.392;13.066;2023-03-14T06:36:16;24.90;35.80
24730;DHT22;12832;52.392;13.066;2023-03-14T06:38:47;24.90;35.90
24730;DHT22;12832;52.392;13.066;2023-03-14T06:41:15;24.90;35.90
24730;DHT22;12832;52.392;13.066;2023-03-14T06:43:44;24.80;35.90
24730;DHT22;12832;52.392;13.066;2023-03-14T06:46:13;24.80;36.00
24730;DHT22;12832;52.392;13.066;2023-03-14T06:48:59;24.80;36.10
24730;DHT22;12832;52.392;13.066;2023-03-14T06:51:34;24.80;36.10
24730;DHT22;12832;52.392;13.066;2023-03-14T06:54:00;24.80;36.20
24730;DHT22;12832;52.392;13.066;2023-03-14T06:56:31;24.80;36.20
24730;DHT22;12832;52.392;13.066;2023-03-14T06:59:12;24.70;36.20
24730;DHT22;12832;52.392;13.066;2023-03-14T07:01:41;24.70;36.20
24730;DHT22;12832;52.392;13.066;2023-03-14T07:04:15;24.70;36.20
24730;DHT22;12832;52.392;13.066;2023-03-14T07:06:47;24.70;36.20
24730;DHT22;12832;52.392;13.066;2023-03-14T07:09:16;24.70;36.30
24730;DHT22;12832;52.392;13.066;2023-03-14T07:11:46;24.70;36.40
24730;DHT22;12832;52.392;13.066;2023-03-14T07:14:18;24.70;36.40
24730;DHT22;12832;52.392;13.066;2023-03-14T07:16:53;24.70;36.40
24730;DHT22;12832;52.392;13.066;2023-03-14T07:19:25;24.70;36.50
24730;DHT22;12832;52.392;13.066;2023-03-14T07:21:55;24.70;36.50
24730;DHT22;12832;52.392;13.066;2023-03-14T07:24:33;24.70;36.50
24730;DHT22;12832;52.392;13.066;2023-03-14T07:27:06;24.70;36.50
24730;DHT22;12832;52.392;13.066;2023-03-14T07:29:52;24.70;36.50
24730;DHT22;12832;52.392;13.066;2023-03-14T07:32:22;24.60;36.50
24730;DHT22;12832;52.392;13.066;2023-03-14T07:34:57;24.70;36.60
24730;DHT22;12832;52.392;13.066;2023-03-14T07:37:29;24.60;36.60
24730;DHT22;12832;52.392;13.066;2023-03-14T07:40:09;24.60;36.60
24730;DHT22;12832;52.392;13.066;2023-03-14T07:42:42;24.60;36.70
24730;DHT22;12832;52.392;13.066;2023-03-14T07:45:18;24.60;36.60
24730;DHT22;12832;52.392;13.066;2023-03-14T07:47:50;24.60;36.50
24730;DHT22;12832;52.392;13.066;2023-03-14T07:50:17;24.60;36.50
24730;DHT22;12832;52.392;13.066;2023-03-14T07:52:57;24.60;36.40
24730;DHT22;12832;52.392;13.066;2023-03-14T07:55:32;24.60;36.40
24730;DHT22;12832;52.392;13.066;2023-03-14T07:58:02;24.60;36.50
24730;DHT22;12832;52.392;13.066;2023-03-14T08:00:32;24.60;36.50
24730;DHT22;12832;52.392;13.066;2023-03-14T08:03:02;24.60;36.50
24730;DHT22;12832;52.392;13.066;2023-03-14T08:05:38;24.50;36.50
24730;DHT22;12832;52.392;13.066;2023-03-14T08:08:16;24.60;36.60
24730;DHT22;12832;52.392;13.066;2023-03-14T08:10:49;24.60;36.60
24730;DHT22;12832;52.392;13.066;2023-03-14T08:13:21;24.60;36.50
24730;DHT22;12832;52.392;13.066;2023-03-14T08:15:53;24.60;36.60
24730;DHT22;12832;52.392;13.066;2023-03-14T08:18:24;24.60;36.60
24730;DHT22;12832;52.392;13.066;2023-03-14T08:20:59;24.50;36.50
24730;DHT22;12832;52.392;13.066;2023-03-14T08:23:31;24.60;36.60
24730;DHT22;12832;52.392;13.066;2023-03-14T08:25:58;24.50;36.60
24730;DHT22;12832;52.392;13.066;2023-03-14T08:28:30;24.50;36.50
24730;DHT22;12832;52.392;13.066;2023-03-14T08:30:59;24.60;36.60
24730;DHT22;12832;52.392;13.066;2023-03-14T08:33:33;24.60;36.50
24730;DHT22;12832;52.392;13.066;2023-03-14T08:36:17;24.50;36.60
24730;DHT22;12832;52.392;13.066;2023-03-14T08:38:50;24.50;36.50
24730;DHT22;12832;52.392;13.066;2023-03-14T08:41:29;24.60;36.60
24730;DHT22;12832;52.392;13.066;2023-03-14T08:44:00;24.50;36.70
24730;DHT22;12832;52.392;13.066;2023-03-14T08:46:29;24.50;36.60
24730;DHT22;12832;52.392;13.066;2023-03-14T08:49:05;24.50;36.80
24730;DHT22;12832;52.392;13.066;2023-03-14T08:51:37;24.50;36.80
24730;DHT22;12832;52.392;13.066;2023-03-14T08:54:10;24.50;36.80
24730;DHT22;12832;52.392;13.066;2023-03-14T08:56:40;24.50;36.80
24730;DHT22;12832;52.392;13.066;2023-03-14T08:59:14;24.50;36.80
24730;DHT22;12832;52.392;13.066;2023-03-14T09:01:46;24.50;36.80
24730;DHT22;12832;52.392;13.066;2023-03-14T09:04:16;24.50;36.80
24730;DHT22;12832;52.392;13.066;2023-03-14T09:06:56;24.50;36.80
24730;DHT22;12832;52.392;13.066;2023-03-14T09:09:25;24.50;36.80
24730;DHT22;12832;52.392;13.066;2023-03-14T09:11:57;24.50;36.90
24730;DHT22;12832;52.392;13.066;2023-03-14T09:14:28;24.50;36.90
24730;DHT22;12832;52.392;13.066;2023-03-14T09:16:59;24.50;36.80
24730;DHT22;12832;52.392;13.066;2023-03-14T09:19:36;24.50;36.80
24730;DHT22;12832;52.392;13.066;2023-03-14T09:22:10;24.40;36.80
24730;DHT22;12832;52.392;13.066;2023-03-14T09:24:40;24.50;36.90
24730;DHT22;12832;52.392;13.066;2023-03-14T09:27:07;24.40;36.80
24730;DHT22;12832;52.392;13.066;2023-03-14T09:29:44;24.40;36.80
24730;DHT22;12832;52.392;13.066;2023-03-14T09:32:17;24.50;36.80
24730;DHT22;12832;52.392;13.066;2023-03-14T09:34:51;24.50;36.80
24730;DHT22;12832;52.392;13.066;2023-03-14T09:37:27;24.50;36.90
24730;DHT22;12832;52.392;13.066;2023-03-14T09:40:03;24.40;36.80
24730;DHT22;12832;52.392;13.066;2023-03-14T09:42:41;24.40;36.80
24730;DHT22;12832;52.392;13.066;2023-03-14T09:45:34;24.40;36.70
24730;DHT22;12832;52.392;13.066;2023-03-14T09:48:15;24.40;36.60
24730;DHT22;12832;52.392;13.066;2023-03-14T09:50:49;24.40;36.60
24730;DHT22;12832;52.392;13.066;2023-03-14T09:53:24;24.40;36.60
24730;DHT22;12832;52.392;13.066;2023-03-14T09:55:58;24.40;36.10
24730;DHT22;12832;52.392;13.066;2023-03-14T09:58:33;24.40;36.50
24730;DHT22;12832;52.392;13.066;2023-03-14T10:01:05;24.40;36.50
24730;DHT22;12832;52.392;13.066;2023-03-14T10:03:46;24.40;36.50
24730;DHT22;12832;52.392;13.066;2023-03-14T10:06:18;24.40;36.50
24730;DHT22;12832;52.392;13.066;2023-03-14T10:08:52;24.40;36.50
24730;DHT22;12832;52.392;13.066;2023-03-14T10:11:33;24.40;36.50
24730;DHT22;12832;52.392;13.066;2023-03-14T10:14:11;24.50;36.60
24730;DHT22;12832;52.392;13.066;2023-03-14T10:16:54;24.40;36.50
24730;DHT22;12832;52.392;13.066;2023-03-14T10:19:28;24.40;37.30
24730;DHT22;12832;52.392;13.066;2023-03-14T10:22:02;24.40;36.60
24730;DHT22;12832;52.392;13.066;2023-03-14T10:24:34;24.40;36.60
24730;DHT22;12832;52.392;13.066;2023-03-14T10:27:22;24.40;36.60
24730;DHT22;12832;52.392;13.066;2023-03-14T10:29:59;24.40;36.60
24730;DHT22;12832;52.392;13.066;2023-03-14T10:32:39;24.30;36.60
24730;DHT22;12832;52.392;13.066;2023-03-14T10:35:18;24.30;36.60
24730;DHT22;12832;52.392;13.066;2023-03-14T10:38:04;24.40;36.80
24730;DHT22;12832;52.392;13.066;2023-03-14T10:40:49;24.40;36.90
24730;DHT22;12832;52.392;13.066;2023-03-14T10:43:36;24.40;37.00
24730;DHT22;12832;52.392;13.066;2023-03-14T10:46:30;24.30;36.80
24730;DHT22;12832;52.392;13.066;2023-03-14T10:52:12;24.30;37.00
24730;DHT22;12832;52.392;13.066;2023-03-14T10:54:46;24.30;36.90
24730;DHT22;12832;52.392;13.066;2023-03-14T10:57:25;24.30;36.80
24730;DHT22;12832;52.392;13.066;2023-03-14T11:00:25;24.30;36.70
24730;DHT22;12832;52.392;13.066;2023-03-14T11:03:12;24.30;36.70
24730;DHT22;12832;52.392;13.066;2023-03-14T11:05:46;24.30;36.70
24730;DHT22;12832;52.392;13.066;2023-03-14T11:11:25;24.30;36.70
24730;DHT22;12832;52.392;13.066;2023-03-14T11:14:20;24.40;36.70
24730;DHT22;12832;52.392;13.066;2023-03-14T11:17:17;24.30;36.70
24730;DHT22;12832;52.392;13.066;2023-03-14T11:22:55;24.30;36.60
24730;DHT22;12832;52.392;13.066;2023-03-14T11:25:38;24.30;36.60
24730;DHT22;12832;52.392;13.066;2023-03-14T11:36:37;24.30;36.60
24730;DHT22;12832;52.392;13.066;2023-03-14T11:39:15;24.30;36.50
24730;DHT22;12832;52.392;13.066;2023-03-14T11:41:49;24.30;36.50
24730;DHT22;12832;52.392;13.066;2023-03-14T11:44:27;24.30;36.50
24730;DHT22;12832;52.392;13.066;2023-03-14T11:47:29;24.30;36.50
24730;DHT22;12832;52.392;13.066;2023-03-14T11:50:28;24.30;36.60
24730;DHT22;12832;52.392;13.066;2023-03-14T11:53:22;24.30;36.50
24730;DHT22;12832;52.392;13.066;2023-03-14T11:55:58;24.30;36.50
24730;DHT22;12832;52.392;13.066;2023-03-14T11:58:51;24.30;36.60
24730;DHT22;12832;52.392;13.066;2023-03-14T12:01:37;24.30;36.70
24730;DHT22;12832;52.392;13.066;2023-03-14T12:04:13;24.30;36.70
24730;DHT22;12832;52.392;13.066;2023-03-14T12:06:50;24.30;36.70
24730;DHT22;12832;52.392;13.066;2023-03-14T12:09:20;24.30;36.70
24730;DHT22;12832;52.392;13.066;2023-03-14T12:11:54;24.30;36.80
24730;DHT22;12832;52.392;13.066;2023-03-14T12:14:32;24.30;36.80
24730;DHT22;12832;52.392;13.066;2023-03-14T12:17:20;24.30;36.60
24730;DHT22;12832;52.392;13.066;2023-03-14T12:20:18;24.40;36.50
24730;DHT22;12832;52.392;13.066;2023-03-14T12:22:55;24.40;36.50
24730;DHT22;12832;52.392;13.066;2023-03-14T12:25:27;24.50;36.40
24730;DHT22;12832;52.392;13.066;2023-03-14T12:30:41;24.50;36.30
24730;DHT22;12832;52.392;13.066;2023-03-14T12:35:57;24.60;36.30
24730;DHT22;12832;52.392;13.066;2023-03-14T12:43:36;24.60;36.10
24730;DHT22;12832;52.392;13.066;2023-03-14T12:49:08;24.60;36.00
24730;DHT22;12832;52.392;13.066;2023-03-14T12:51:43;24.60;36.00
24730;DHT22;12832;52.392;13.066;2023-03-14T12:54:40;24.70;36.00
24730;DHT22;12832;52.392;13.066;2023-03-14T13:00:11;24.70;35.90
24730;DHT22;12832;52.392;13.066;2023-03-14T13:02:50;24.70;35.90
24730;DHT22;12832;52.392;13.066;2023-03-14T13:05:21;24.70;35.90
24730;DHT22;12832;52.392;13.066;2023-03-14T13:10:30;24.70;35.80
24730;DHT22;12832;52.392;13.066;2023-03-14T13:13:22;24.70;35.80
24730;DHT22;12832;52.392;13.066;2023-03-14T13:16:00;24.80;35.80
24730;DHT22;12832;52.392;13.066;2023-03-14T13:18:42;24.80;35.90
24730;DHT22;12832;52.392;13.066;2023-03-14T13:21:22;24.70;35.90
24730;DHT22;12832;52.392;13.066;2023-03-14T13:24:04;24.80;35.90
24730;DHT22;12832;52.392;13.066;2023-03-14T13:26:39;24.80;35.90
24730;DHT22;12832;52.392;13.066;2023-03-14T13:31:45;24.80;35.80
24730;DHT22;12832;52.392;13.066;2023-03-14T13:34:15;24.80;35.80
24730;DHT22;12832;52.392;13.066;2023-03-14T13:36:43;24.80;35.70
24730;DHT22;12832;52.392;13.066;2023-03-14T13:39:18;24.80;35.70
24730;DHT22;12832;52.392;13.066;2023-03-14T13:41:46;24.80;35.70
24730;DHT22;12832;52.392;13.066;2023-03-14T13:44:38;24.80;35.70
24730;DHT22;12832;52.392;13.066;2023-03-14T13:47:17;24.80;35.60
24730;DHT22;12832;52.392;13.066;2023-03-14T13:49:46;24.80;35.60
24730;DHT22;12832;52.392;13.066;2023-03-14T13:52:35;24.90;35.70
24730;DHT22;12832;52.392;13.066;2023-03-14T13:55:12;24.90;35.60
24730;DHT22;12832;52.392;13.066;2023-03-14T13:57:46;24.90;35.60
24730;DHT22;12832;52.392;13.066;2023-03-14T14:00:26;24.90;35.50
24730;DHT22;12832;52.392;13.066;2023-03-14T14:02:59;24.90;35.60
24730;DHT22;12832;52.392;13.066;2023-03-14T14:05:33;24.90;35.50
24730;DHT22;12832;52.392;13.066;2023-03-14T14:08:05;24.90;36.20
24730;DHT22;12832;52.392;13.066;2023-03-14T14:10:37;24.90;35.50
24730;DHT22;12832;52.392;13.066;2023-03-14T14:13:08;24.90;35.60
24730;DHT22;12832;52.392;13.066;2023-03-14T14:15:42;24.90;35.50
24730;DHT22;12832;52.392;13.066;2023-03-14T14:18:12;24.90;35.50
24730;DHT22;12832;52.392;13.066;2023-03-14T14:20:46;24.90;35.50
24730;DHT22;12832;52.392;13.066;2023-03-14T14:23:21;24.90;35.60
24730;DHT22;12832;52.392;13.066;2023-03-14T14:25:53;24.90;35.50
24730;DHT22;12832;52.392;13.066;2023-03-14T14:28:47;24.90;35.50
24730;DHT22;12832;52.392;13.066;2023-03-14T14:31:25;24.90;35.60
24730;DHT22;12832;52.392;13.066;2023-03-14T14:34:01;24.90;35.60
24730;DHT22;12832;52.392;13.066;2023-03-14T14:36:41;24.90;35.50
24730;DHT22;12832;52.392;13.066;2023-03-14T14:41:42;24.90;35.50
24730;DHT22;12832;52.392;13.066;2023-03-14T14:44:16;24.90;35.60
24730;DHT22;12832;52.392;13.066;2023-03-14T14:46:48;24.90;35.60
24730;DHT22;12832;52.392;13.066;2023-03-14T14:49:19;24.90;35.60
24730;DHT22;12832;52.392;13.066;2023-03-14T14:51:52;24.90;35.60
24730;DHT22;12832;52.392;13.066;2023-03-14T14:57:25;24.90;35.60
24730;DHT22;12832;52.392;13.066;2023-03-14T15:00:00;24.90;35.70
24730;DHT22;12832;52.392;13.066;2023-03-14T15:02:40;24.90;35.70
24730;DHT22;12832;52.392;13.066;2023-03-14T15:05:14;25.00;35.80
24730;DHT22;12832;52.392;13.066;2023-03-14T15:07:46;25.00;35.80
24730;DHT22;12832;52.392;13.066;2023-03-14T15:10:19;24.90;35.70
24730;DHT22;12832;52.392;13.066;2023-03-14T15:12:48;25.00;35.70
24730;DHT22;12832;52.392;13.066;2023-03-14T15:15:17;25.00;35.70
24730;DHT22;12832;52.392;13.066;2023-03-14T15:17:46;25.00;35.70
24730;DHT22;12832;52.392;13.066;2023-03-14T15:20:19;24.90;35.60
24730;DHT22;12832;52.392;13.066;2023-03-14T15:22:53;25.00;35.60
24730;DHT22;12832;52.392;13.066;2023-03-14T15:25:24;25.00;35.70
24730;DHT22;12832;52.392;13.066;2023-03-14T15:28:18;25.00;35.60
24730;DHT22;12832;52.392;13.066;2023-03-14T15:30:58;25.00;35.70
24730;DHT22;12832;52.392;13.066;2023-03-14T15:33:27;24.90;35.60
24730;DHT22;12832;52.392;13.066;2023-03-14T15:36:24;24.90;35.60
24730;DHT22;12832;52.392;13.066;2023-03-14T15:39:03;25.00;35.70
24730;DHT22;12832;52.392;13.066;2023-03-14T15:41:42;25.00;35.70
24730;DHT22;12832;52.392;13.066;2023-03-14T15:44:21;25.00;35.60
24730;DHT22;12832;52.392;13.066;2023-03-14T15:46:52;25.00;35.60
24730;DHT22;12832;52.392;13.066;2023-03-14T15:49:27;25.00;35.60
24730;DHT22;12832;52.392;13.066;2023-03-14T15:51:58;25.00;35.60
24730;DHT22;12832;52.392;13.066;2023-03-14T15:54:30;25.00;35.50
24730;DHT22;12832;52.392;13.066;2023-03-14T15:57:05;25.00;35.50
24730;DHT22;12832;52.392;13.066;2023-03-14T15:59:39;25.00;35.50
24730;DHT22;12832;52.392;13.066;2023-03-14T16:02:09;25.00;35.50
24730;DHT22;12832;52.392;13.066;2023-03-14T16:04:41;25.00;35.50
24730;DHT22;12832;52.392;13.066;2023-03-14T16:07:35;25.00;35.50
24730;DHT22;12832;52.392;13.066;2023-03-14T16:10:18;25.00;35.50
24730;DHT22;12832;52.392;13.066;2023-03-14T16:12:49;25.00;35.60
24730;DHT22;12832;52.392;13.066;2023-03-14T16:15:17;25.00;35.60
24730;DHT22;12832;52.392;13.066;2023-03-14T16:17:51;25.00;35.60
24730;DHT22;12832;52.392;13.066;2023-03-14T16:20:25;25.00;35.70
24730;DHT22;12832;52.392;13.066;2023-03-14T16:23:04;25.00;35.70
24730;DHT22;12832;52.392;13.066;2023-03-14T16:25:34;25.00;35.60
24730;DHT22;12832;52.392;13.066;2023-03-14T16:28:06;25.00;35.60
24730;DHT22;12832;52.392;13.066;2023-03-14T16:30:37;25.00;35.60
24730;DHT22;12832;52.392;13.066;2023-03-14T16:33:09;25.00;35.50
24730;DHT22;12832;52.392;13.066;2023-03-14T16:35:52;24.90;35.40
24730;DHT22;12832;52.392;13.066;2023-03-14T16:38:24;25.00;35.40
24730;DHT22;12832;52.392;13.066;2023-03-14T16:41:20;25.00;36.10
24730;DHT22;12832;52.392;13.066;2023-03-14T16:43:50;25.00;35.30
24730;DHT22;12832;52.392;13.066;2023-03-14T16:46:23;25.00;35.20
24730;DHT22;12832;52.392;13.066;2023-03-14T16:48:56;25.00;35.10
24730;DHT22;12832;52.392;13.066;2023-03-14T16:51:26;25.00;35.00
24730;DHT22;12832;52.392;13.066;2023-03-14T16:54:00;25.00;35.00
24730;DHT22;12832;52.392;13.066;2023-03-14T16:56:33;25.00;34.90
24730;DHT22;12832;52.392;13.066;2023-03-14T16:59:03;25.00;34.80